sensor_id;sensor_type;location;lat;lon;timestamp;pressure;altitude;pressure_sealevel;temperature;humidity
29121;BME280;16191;49.548;8.658;2024-01-11T00:00:44;101573.91;;;-3.34;100.00
29121;BME280;16191;49.548;8.658;2024-01-11T00:03:11;101580.50;;;-3.17;100.00
29121;BME280;16191;49.548;8.658;2024-01-11T00:05:38;101583.88;;;-3.18;100.00
29121;BME280;16191;49.548;8.658;2024-01-11T00:08:05;101580.31;;;-3.22;100.00
29121;BME280;16191;49.548;8.658;2024-01-11T00:10:32;101571.72;;;-3.25;100.00
29121;BME280;16191;49.548;8.658;2024-01-11T00:12:58;101570.16;;;-3.20;100.00
29121;BME280;16191;49.548;8.658;2024-01-11T00:15:25;101577.47;;;-3.07;100.00
29121;BME280;16191;49.548;8.658;2024-01-11T00:17:52;101574.97;;;-3.05;100.00
29121;BME280;16191;49.548;8.658;2024-01-11T00:20:19;101573.44;;;-3.00;100.00
29121;BME280;16191;49.548;8.658;2024-01-11T00:22:45;101570.63;;;-3.08;100.00
29121;BME280;16191;49.548;8.658;2024-01-11T00:25:12;101574.28;;;-3.00;100.00
29121;BME280;16191;49.548;8.658;2024-01-11T00:27:39;101582.00;;;-2.98;100.00
29121;BME280;16191;49.548;8.658;2024-01-11T00:30:06;101581.91;;;-3.01;100.00
29121;BME280;16191;49.548;8.658;2024-01-11T00:32:33;101573.47;;;-2.99;100.00
29121;BME280;16191;49.548;8.658;2024-01-11T00:35:00;101583.56;;;-3.03;100.00
29121;BME280;16191;49.548;8.658;2024-01-11T00:37:26;101582.63;;;-3.05;100.00
29121;BME280;16191;49.548;8.658;2024-01-11T00:39:53;101580.44;;;-2.95;100.00
29121;BME280;16191;49.548;8.658;2024-01-11T00:42:20;101583.28;;;-3.11;100.00
29121;BME280;16191;49.548;8.658;2024-01-11T00:44:46;101582.94;;;-3.20;100.00
29121;BME280;16191;49.548;8.658;2024-01-11T00:47:13;101572.78;;;-3.19;100.00
29121;BME280;16191;49.548;8.658;2024-01-11T00:49:40;101586.69;;;-3.11;100.00
29121;BME280;16191;49.548;8.658;2024-01-11T00:52:07;101581.25;;;-2.96;100.00
29121;BME280;16191;49.548;8.658;2024-01-11T00:54:33;101580.38;;;-2.96;100.00
29121;BME280;16191;49.548;8.658;2024-01-11T00:57:00;101584.69;;;-2.95;100.00
29121;BME280;16191;49.548;8.658;2024-01-11T00:59:27;101594.25;;;-3.14;100.00
29121;BME280;16191;49.548;8.658;2024-01-11T01:01:53;101593.53;;;-3.09;100.00
29121;BME280;16191;49.548;8.658;2024-01-11T01:04:20;101608.41;;;-2.98;100.00
29121;BME280;16191;49.548;8.658;2024-01-11T01:06:47;101594.47;;;-3.07;100.00
29121;BME280;16191;49.548;8.658;2024-01-11T01:09:14;101602.94;;;-3.08;100.00
29121;BME280;16191;49.548;8.658;2024-01-11T01:11:41;101603.69;;;-3.11;100.00
29121;BME280;16191;49.548;8.658;2024-01-11T01:14:07;101599.84;;;-3.00;100.00
29121;BME280;16191;49.548;8.658;2024-01-11T01:16:34;101602.88;;;-3.10;100.00
29121;BME280;16191;49.548;8.658;2024-01-11T01:19:01;101591.22;;;-3.03;100.00
29121;BME280;16191;49.548;8.658;2024-01-11T01:21:27;101587.19;;;-2.97;100.00
29121;BME280;16191;49.548;8.658;2024-01-11T01:23:54;101588.72;;;-3.24;100.00
29121;BME280;16191;49.548;8.658;2024-01-11T01:26:21;101585.28;;;-3.02;100.00
29121;BME280;16191;49.548;8.658;2024-01-11T01:28:47;101587.06;;;-3.00;100.00
29121;BME280;16191;49.548;8.658;2024-01-11T01:31:14;101590.38;;;-3.02;100.00
29121;BME280;16191;49.548;8.658;2024-01-11T01:33:41;101587.94;;;-2.99;100.00
29121;BME280;16191;49.548;8.658;2024-01-11T01:36:09;101588.56;;;-3.06;100.00
29121;BME280;16191;49.548;8.658;2024-01-11T01:38:36;101592.50;;;-3.15;100.00
29121;BME280;16191;49.548;8.658;2024-01-11T01:41:03;101595.53;;;-3.01;100.00
29121;BME280;16191;49.548;8.658;2024-01-11T01:43:30;101602.13;;;-3.07;100.00
29121;BME280;16191;49.548;8.658;2024-01-11T01:45:57;101601.91;;;-3.14;100.00
29121;BME280;16191;49.548;8.658;2024-01-11T01:48:24;101602.84;;;-3.12;100.00
29121;BME280;16191;49.548;8.658;2024-01-11T01:50:52;101599.53;;;-3.09;100.00
29121;BME280;16191;49.548;8.658;2024-01-11T01:53:21;101604.34;;;-3.17;100.00
29121;BME280;16191;49.548;8.658;2024-01-11T01:55:49;101607.25;;;-3.07;100.00
29121;BME280;16191;49.548;8.658;2024-01-11T01:58:17;101603.81;;;-3.08;100.00
29121;BME280;16191;49.548;8.658;2024-01-11T02:00:45;101608.47;;;-3.20;100.00
29121;BME280;16191;49.548;8.658;2024-01-11T02:03:14;101602.78;;;-3.13;100.00
29121;BME280;16191;49.548;8.658;2024-01-11T02:05:42;101610.59;;;-3.08;100.00
29121;BME280;16191;49.548;8.658;2024-01-11T02:08:12;101602.78;;;-3.13;100.00
29121;BME280;16191;49.548;8.658;2024-01-11T02:10:42;101600.88;;;-3.19;100.00
29121;BME280;16191;49.548;8.658;2024-01-11T02:13:11;101607.50;;;-3.00;100.00
29121;BME280;16191;49.548;8.658;2024-01-11T02:15:38;101606.38;;;-3.08;100.00
29121;BME280;16191;49.548;8.658;2024-01-11T02:18:05;101611.13;;;-3.17;100.00
29121;BME280;16191;49.548;8.658;2024-01-11T02:20:32;101601.41;;;-3.27;100.00
29121;BME280;16191;49.548;8.658;2024-01-11T02:23:05;101606.47;;;-3.29;100.00
29121;BME280;16191;49.548;8.658;2024-01-11T02:25:32;101609.22;;;-3.23;100.00
29121;BME280;16191;49.548;8.658;2024-01-11T02:27:58;101616.25;;;-3.39;100.00
29121;BME280;16191;49.548;8.658;2024-01-11T02:30:25;101618.28;;;-3.31;100.00
29121;BME280;16191;49.548;8.658;2024-01-11T02:32:52;101618.06;;;-3.37;100.00
29121;BME280;16191;49.548;8.658;2024-01-11T02:35:20;101621.09;;;-3.23;100.00
29121;BME280;16191;49.548;8.658;2024-01-11T02:37:48;101620.47;;;-3.18;100.00
29121;BME280;16191;49.548;8.658;2024-01-11T02:40:15;101615.56;;;-3.35;100.00
29121;BME280;16191;49.548;8.658;2024-01-11T02:42:42;101618.09;;;-3.13;100.00
29121;BME280;16191;49.548;8.658;2024-01-11T02:45:10;101631.22;;;-3.26;100.00
29121;BME280;16191;49.548;8.658;2024-01-11T02:47:38;101630.75;;;-3.38;100.00
29121;BME280;16191;49.548;8.658;2024-01-11T02:50:06;101621.91;;;-3.48;100.00
29121;BME280;16191;49.548;8.658;2024-01-11T02:52:34;101626.22;;;-3.46;100.00
29121;BME280;16191;49.548;8.658;2024-01-11T02:55:01;101628.91;;;-3.42;100.00
29121;BME280;16191;49.548;8.658;2024-01-11T02:57:48;101628.25;;;-3.59;100.00
29121;BME280;16191;49.548;8.658;2024-01-11T03:00:35;101621.41;;;-3.38;100.00
29121;BME280;16191;49.548;8.658;2024-01-11T03:03:21;101614.56;;;-3.39;100.00
29121;BME280;16191;49.548;8.658;2024-01-11T03:06:08;101616.50;;;-3.33;100.00
29121;BME280;16191;49.548;8.658;2024-01-11T03:08:55;101623.91;;;-3.62;100.00
29121;BME280;16191;49.548;8.658;2024-01-11T03:11:41;101620.72;;;-3.78;100.00
29121;BME280;16191;49.548;8.658;2024-01-11T03:14:08;101621.13;;;-3.68;100.00
29121;BME280;16191;49.548;8.658;2024-01-11T03:16:35;101603.25;;;-3.46;100.00
29121;BME280;16191;49.548;8.658;2024-01-11T03:19:01;101602.50;;;-3.43;100.00
29121;BME280;16191;49.548;8.658;2024-01-11T03:21:29;101605.66;;;-3.50;100.00
29121;BME280;16191;49.548;8.658;2024-01-11T03:23:56;101605.00;;;-3.67;100.00
29121;BME280;16191;49.548;8.658;2024-01-11T03:26:23;101597.84;;;-3.55;100.00
29121;BME280;16191;49.548;8.658;2024-01-11T03:28:49;101596.09;;;-3.56;100.00
29121;BME280;16191;49.548;8.658;2024-01-11T03:31:17;101587.94;;;-3.46;100.00
29121;BME280;16191;49.548;8.658;2024-01-11T03:33:44;101589.94;;;-3.38;100.00
29121;BME280;16191;49.548;8.658;2024-01-11T03:36:12;101592.66;;;-3.56;100.00
29121;BME280;16191;49.548;8.658;2024-01-11T03:38:38;101594.72;;;-3.46;100.00
29121;BME280;16191;49.548;8.658;2024-01-11T03:41:09;101589.44;;;-3.52;100.00
29121;BME280;16191;49.548;8.658;2024-01-11T03:43:39;101589.63;;;-3.46;100.00
29121;BME280;16191;49.548;8.658;2024-01-11T03:46:05;101599.91;;;-3.45;100.00
29121;BME280;16191;49.548;8.658;2024-01-11T03:48:32;101605.06;;;-3.43;100.00
29121;BME280;16191;49.548;8.658;2024-01-11T03:50:59;101598.94;;;-3.48;100.00
29121;BME280;16191;49.548;8.658;2024-01-11T03:53:26;101596.84;;;-3.58;100.00
29121;BME280;16191;49.548;8.658;2024-01-11T03:55:53;101600.31;;;-3.56;100.00
29121;BME280;16191;49.548;8.658;2024-01-11T03:58:20;101591.91;;;-3.54;100.00
29121;BME280;16191;49.548;8.658;2024-01-11T04:00:47;101592.84;;;-3.52;100.00
29121;BME280;16191;49.548;8.658;2024-01-11T04:03:13;101591.63;;;-3.61;100.00
29121;BME280;16191;49.548;8.658;2024-01-11T04:05:40;101587.69;;;-3.75;100.00
29121;BME280;16191;49.548;8.658;2024-01-11T04:08:08;101586.47;;;-3.63;100.00
29121;BME280;16191;49.548;8.658;2024-01-11T04:10:35;101589.00;;;-3.63;100.00
29121;BME280;16191;49.548;8.658;2024-01-11T04:13:01;101583.78;;;-3.66;100.00
29121;BME280;16191;49.548;8.658;2024-01-11T04:15:28;101589.19;;;-3.58;100.00
29121;BME280;16191;49.548;8.658;2024-01-11T04:17:55;101589.00;;;-3.63;100.00
29121;BME280;16191;49.548;8.658;2024-01-11T04:20:22;101601.56;;;-3.69;100.00
29121;BME280;16191;49.548;8.658;2024-01-11T04:22:50;101592.44;;;-3.62;100.00
29121;BME280;16191;49.548;8.658;2024-01-11T04:25:17;101597.72;;;-3.58;100.00
29121;BME280;16191;49.548;8.658;2024-01-11T04:27:43;101599.31;;;-3.82;100.00
29121;BME280;16191;49.548;8.658;2024-01-11T04:30:10;101598.75;;;-3.75;100.00
29121;BME280;16191;49.548;8.658;2024-01-11T04:32:37;101597.25;;;-3.70;100.00
29121;BME280;16191;49.548;8.658;2024-01-11T04:35:04;101611.00;;;-3.87;100.00
29121;BME280;16191;49.548;8.658;2024-01-11T04:37:31;101604.91;;;-3.70;100.00
29121;BME280;16191;49.548;8.658;2024-01-11T04:39:58;101608.28;;;-3.71;100.00
29121;BME280;16191;49.548;8.658;2024-01-11T04:42:27;101606.47;;;-3.73;100.00
29121;BME280;16191;49.548;8.658;2024-01-11T04:44:54;101611.78;;;-3.67;100.00
29121;BME280;16191;49.548;8.658;2024-01-11T04:47:21;101615.00;;;-3.73;100.00
29121;BME280;16191;49.548;8.658;2024-01-11T04:49:47;101616.50;;;-3.56;100.00
29121;BME280;16191;49.548;8.658;2024-01-11T04:52:14;101608.53;;;-3.63;100.00
29121;BME280;16191;49.548;8.658;2024-01-11T04:54:41;101615.69;;;-3.55;100.00
29121;BME280;16191;49.548;8.658;2024-01-11T04:57:08;101611.91;;;-3.64;100.00
29121;BME280;16191;49.548;8.658;2024-01-11T04:59:34;101607.91;;;-3.58;100.00
29121;BME280;16191;49.548;8.658;2024-01-11T05:02:01;101614.00;;;-3.76;100.00
29121;BME280;16191;49.548;8.658;2024-01-11T05:04:28;101620.16;;;-3.71;100.00
29121;BME280;16191;49.548;8.658;2024-01-11T05:06:55;101609.53;;;-3.60;100.00
29121;BME280;16191;49.548;8.658;2024-01-11T05:09:21;101606.28;;;-3.78;100.00
29121;BME280;16191;49.548;8.658;2024-01-11T05:11:48;101614.31;;;-3.69;100.00
29121;BME280;16191;49.548;8.658;2024-01-11T05:14:15;101614.75;;;-3.57;100.00
29121;BME280;16191;49.548;8.658;2024-01-11T05:16:42;101619.56;;;-3.64;100.00
29121;BME280;16191;49.548;8.658;2024-01-11T05:19:09;101617.00;;;-3.64;100.00
29121;BME280;16191;49.548;8.658;2024-01-11T05:21:36;101614.69;;;-3.58;100.00
29121;BME280;16191;49.548;8.658;2024-01-11T05:24:03;101614.56;;;-3.61;100.00
29121;BME280;16191;49.548;8.658;2024-01-11T05:26:29;101607.91;;;-3.58;100.00
29121;BME280;16191;49.548;8.658;2024-01-11T05:28:56;101618.38;;;-3.52;100.00
29121;BME280;16191;49.548;8.658;2024-01-11T05:31:23;101614.34;;;-3.45;100.00
29121;BME280;16191;49.548;8.658;2024-01-11T05:33:49;101611.03;;;-3.42;100.00
29121;BME280;16191;49.548;8.658;2024-01-11T05:36:16;101619.00;;;-3.35;100.00
29121;BME280;16191;49.548;8.658;2024-01-11T05:38:44;101621.53;;;-3.57;100.00
29121;BME280;16191;49.548;8.658;2024-01-11T05:41:11;101623.91;;;-3.62;100.00
29121;BME280;16191;49.548;8.658;2024-01-11T05:43:39;101629.44;;;-3.73;100.00
29121;BME280;16191;49.548;8.658;2024-01-11T05:46:06;101626.69;;;-3.78;100.00
29121;BME280;16191;49.548;8.658;2024-01-11T05:48:34;101635.03;;;-3.82;100.00
29121;BME280;16191;49.548;8.658;2024-01-11T05:51:01;101635.72;;;-3.86;100.00
29121;BME280;16191;49.548;8.658;2024-01-11T05:53:27;101636.44;;;-3.89;100.00
29121;BME280;16191;49.548;8.658;2024-01-11T05:55:54;101624.34;;;-3.94;100.00
29121;BME280;16191;49.548;8.658;2024-01-11T05:58:21;101642.06;;;-3.97;100.00
29121;BME280;16191;49.548;8.658;2024-01-11T06:00:49;101645.25;;;-4.03;100.00
29121;BME280;16191;49.548;8.658;2024-01-11T06:03:17;101649.16;;;-4.11;100.00
29121;BME280;16191;49.548;8.658;2024-01-11T06:05:43;101648.63;;;-4.44;100.00
29121;BME280;16191;49.548;8.658;2024-01-11T06:08:10;101645.97;;;-4.47;100.00
29121;BME280;16191;49.548;8.658;2024-01-11T06:10:39;101648.56;;;-4.45;100.00
29121;BME280;16191;49.548;8.658;2024-01-11T06:13:05;101648.78;;;-4.41;100.00
29121;BME280;16191;49.548;8.658;2024-01-11T06:15:32;101650.25;;;-4.46;100.00
29121;BME280;16191;49.548;8.658;2024-01-11T06:17:59;101656.63;;;-4.36;100.00
29121;BME280;16191;49.548;8.658;2024-01-11T06:20:26;101656.09;;;-4.68;100.00
29121;BME280;16191;49.548;8.658;2024-01-11T06:22:53;101661.38;;;-4.44;100.00
29121;BME280;16191;49.548;8.658;2024-01-11T06:25:21;101659.38;;;-4.51;100.00
29121;BME280;16191;49.548;8.658;2024-01-11T06:27:48;101663.34;;;-4.58;100.00
29121;BME280;16191;49.548;8.658;2024-01-11T06:30:14;101663.94;;;-4.44;100.00
29121;BME280;16191;49.548;8.658;2024-01-11T06:32:41;101671.94;;;-4.56;100.00
29121;BME280;16191;49.548;8.658;2024-01-11T06:35:08;101674.59;;;-4.53;100.00
29121;BME280;16191;49.548;8.658;2024-01-11T06:37:36;101680.44;;;-4.55;100.00
29121;BME280;16191;49.548;8.658;2024-01-11T06:40:03;101682.84;;;-4.58;100.00
29121;BME280;16191;49.548;8.658;2024-01-11T06:42:30;101691.03;;;-4.65;100.00
29121;BME280;16191;49.548;8.658;2024-01-11T06:44:57;101695.03;;;-4.70;100.00
29121;BME280;16191;49.548;8.658;2024-01-11T06:47:24;101686.31;;;-4.75;100.00
29121;BME280;16191;49.548;8.658;2024-01-11T06:49:51;101693.44;;;-4.68;100.00
29121;BME280;16191;49.548;8.658;2024-01-11T06:52:18;101698.53;;;-4.68;100.00
29121;BME280;16191;49.548;8.658;2024-01-11T06:54:46;101704.44;;;-4.69;100.00
29121;BME280;16191;49.548;8.658;2024-01-11T06:57:12;101702.81;;;-4.87;100.00
29121;BME280;16191;49.548;8.658;2024-01-11T06:59:39;101707.09;;;-4.86;100.00
29121;BME280;16191;49.548;8.658;2024-01-11T07:02:06;101715.16;;;-4.76;100.00
29121;BME280;16191;49.548;8.658;2024-01-11T07:04:33;101719.69;;;-4.89;100.00
29121;BME280;16191;49.548;8.658;2024-01-11T07:07:00;101724.34;;;-4.98;100.00
29121;BME280;16191;49.548;8.658;2024-01-11T07:09:26;101720.22;;;-4.96;100.00
29121;BME280;16191;49.548;8.658;2024-01-11T07:11:53;101732.94;;;-4.96;100.00
29121;BME280;16191;49.548;8.658;2024-01-11T07:14:20;101726.19;;;-4.95;100.00
29121;BME280;16191;49.548;8.658;2024-01-11T07:16:46;101728.47;;;-5.01;100.00
29121;BME280;16191;49.548;8.658;2024-01-11T07:19:13;101723.56;;;-4.97;100.00
29121;BME280;16191;49.548;8.658;2024-01-11T07:21:40;101732.56;;;-4.86;100.00
29121;BME280;16191;49.548;8.658;2024-01-11T07:24:06;101735.84;;;-4.88;100.00
29121;BME280;16191;49.548;8.658;2024-01-11T07:26:33;101741.44;;;-4.95;100.00
29121;BME280;16191;49.548;8.658;2024-01-11T07:29:00;101738.09;;;-4.94;100.00
29121;BME280;16191;49.548;8.658;2024-01-11T07:31:27;101744.69;;;-4.99;100.00
29121;BME280;16191;49.548;8.658;2024-01-11T07:33:54;101733.00;;;-4.94;100.00
29121;BME280;16191;49.548;8.658;2024-01-11T07:36:21;101733.16;;;-4.91;100.00
29121;BME280;16191;49.548;8.658;2024-01-11T07:38:48;101734.34;;;-5.02;100.00
29121;BME280;16191;49.548;8.658;2024-01-11T07:41:14;101735.44;;;-5.15;100.00
29121;BME280;16191;49.548;8.658;2024-01-11T07:43:41;101740.31;;;-5.02;100.00
29121;BME280;16191;49.548;8.658;2024-01-11T07:46:19;101743.25;;;-4.93;100.00
29121;BME280;16191;49.548;8.658;2024-01-11T07:49:02;101750.03;;;-4.93;100.00
29121;BME280;16191;49.548;8.658;2024-01-11T07:51:29;101749.31;;;-4.91;100.00
29121;BME280;16191;49.548;8.658;2024-01-11T07:53:56;101751.56;;;-4.97;100.00
29121;BME280;16191;49.548;8.658;2024-01-11T07:56:23;101750.19;;;-4.90;100.00
29121;BME280;16191;49.548;8.658;2024-01-11T07:58:50;101755.06;;;-4.95;100.00
29121;BME280;16191;49.548;8.658;2024-01-11T08:01:16;101752.97;;;-5.03;100.00
29121;BME280;16191;49.548;8.658;2024-01-11T08:03:43;101762.13;;;-5.07;100.00
29121;BME280;16191;49.548;8.658;2024-01-11T08:06:14;101760.91;;;-5.15;100.00
29121;BME280;16191;49.548;8.658;2024-01-11T08:08:41;101760.16;;;-5.12;100.00
29121;BME280;16191;49.548;8.658;2024-01-11T08:11:10;101762.56;;;-5.15;100.00
29121;BME280;16191;49.548;8.658;2024-01-11T08:13:38;101763.69;;;-5.28;100.00
29121;BME280;16191;49.548;8.658;2024-01-11T08:16:05;101758.44;;;-5.13;100.00
29121;BME280;16191;49.548;8.658;2024-01-11T08:18:36;101762.50;;;-4.99;100.00
29121;BME280;16191;49.548;8.658;2024-01-11T08:21:03;101764.06;;;-4.84;100.00
29121;BME280;16191;49.548;8.658;2024-01-11T08:23:33;101763.84;;;-4.88;100.00
29121;BME280;16191;49.548;8.658;2024-01-11T08:26:00;101773.16;;;-4.89;100.00
29121;BME280;16191;49.548;8.658;2024-01-11T08:28:26;101769.69;;;-4.71;100.00
29121;BME280;16191;49.548;8.658;2024-01-11T08:30:53;101774.06;;;-4.50;100.00
29121;BME280;16191;49.548;8.658;2024-01-11T08:33:20;101781.06;;;-4.45;100.00
29121;BME280;16191;49.548;8.658;2024-01-11T08:35:47;101779.50;;;-4.23;100.00
29121;BME280;16191;49.548;8.658;2024-01-11T08:38:14;101780.03;;;-4.10;100.00
29121;BME280;16191;49.548;8.658;2024-01-11T08:40:41;101771.03;;;-4.02;100.00
29121;BME280;16191;49.548;8.658;2024-01-11T08:43:07;101769.81;;;-3.91;100.00
29121;BME280;16191;49.548;8.658;2024-01-11T08:45:34;101772.31;;;-3.72;100.00
29121;BME280;16191;49.548;8.658;2024-01-11T08:48:00;101767.44;;;-3.66;100.00
29121;BME280;16191;49.548;8.658;2024-01-11T08:50:27;101766.34;;;-3.52;100.00
29121;BME280;16191;49.548;8.658;2024-01-11T08:52:55;101770.59;;;-3.52;100.00
29121;BME280;16191;49.548;8.658;2024-01-11T08:55:22;101763.88;;;-3.50;100.00
29121;BME280;16191;49.548;8.658;2024-01-11T08:57:49;101765.16;;;-3.39;100.00
29121;BME280;16191;49.548;8.658;2024-01-11T09:00:16;101765.69;;;-3.48;100.00
29121;BME280;16191;49.548;8.658;2024-01-11T09:02:45;101762.25;;;-3.05;100.00
29121;BME280;16191;49.548;8.658;2024-01-11T09:05:16;101753.66;;;-3.07;100.00
29121;BME280;16191;49.548;8.658;2024-01-11T09:07:43;101755.66;;;-2.98;100.00
29121;BME280;16191;49.548;8.658;2024-01-11T09:10:10;101754.31;;;-2.66;100.00
29121;BME280;16191;49.548;8.658;2024-01-11T09:12:38;101749.28;;;-2.65;100.00
29121;BME280;16191;49.548;8.658;2024-01-11T09:15:05;101743.75;;;-2.76;100.00
29121;BME280;16191;49.548;8.658;2024-01-11T09:17:32;101747.19;;;-2.75;100.00
29121;BME280;16191;49.548;8.658;2024-01-11T09:19:59;101745.97;;;-2.38;100.00
29121;BME280;16191;49.548;8.658;2024-01-11T09:22:26;101753.19;;;-2.27;100.00
29121;BME280;16191;49.548;8.658;2024-01-11T09:24:54;101753.47;;;-2.19;100.00
29121;BME280;16191;49.548;8.658;2024-01-11T09:27:21;101749.41;;;-2.13;100.00
29121;BME280;16191;49.548;8.658;2024-01-11T09:29:49;101760.06;;;-2.26;100.00
29121;BME280;16191;49.548;8.658;2024-01-11T09:32:21;101770.50;;;-2.20;100.00
29121;BME280;16191;49.548;8.658;2024-01-11T09:34:47;101768.78;;;-1.95;100.00
29121;BME280;16191;49.548;8.658;2024-01-11T09:37:14;101764.34;;;-1.76;100.00
29121;BME280;16191;49.548;8.658;2024-01-11T09:39:41;101767.66;;;-1.53;100.00
29121;BME280;16191;49.548;8.658;2024-01-11T09:42:09;101776.78;;;-1.61;100.00
29121;BME280;16191;49.548;8.658;2024-01-11T09:44:37;101779.44;;;-1.58;100.00
29121;BME280;16191;49.548;8.658;2024-01-11T09:47:08;101785.47;;;-1.56;100.00
29121;BME280;16191;49.548;8.658;2024-01-11T09:49:40;101792.06;;;-1.37;100.00
29121;BME280;16191;49.548;8.658;2024-01-11T09:52:08;101807.84;;;-1.23;100.00
29121;BME280;16191;49.548;8.658;2024-01-11T09:54:37;101815.88;;;-1.40;100.00
29121;BME280;16191;49.548;8.658;2024-01-11T09:57:04;101809.41;;;-1.01;100.00
29121;BME280;16191;49.548;8.658;2024-01-11T09:59:34;101803.59;;;-1.23;100.00
29121;BME280;16191;49.548;8.658;2024-01-11T10:02:03;101793.66;;;-0.85;100.00
29121;BME280;16191;49.548;8.658;2024-01-11T10:04:30;101797.81;;;-0.60;100.00
29121;BME280;16191;49.548;8.658;2024-01-11T10:06:57;101796.97;;;-0.61;100.00
29121;BME280;16191;49.548;8.658;2024-01-11T10:09:24;101801.44;;;-0.54;100.00
29121;BME280;16191;49.548;8.658;2024-01-11T10:11:51;101802.03;;;-0.62;100.00
29121;BME280;16191;49.548;8.658;2024-01-11T10:14:20;101787.06;;;-0.49;100.00
29121;BME280;16191;49.548;8.658;2024-01-11T10:16:47;101776.88;;;-0.16;100.00
29121;BME280;16191;49.548;8.658;2024-01-11T10:19:14;101774.13;;;0.10;100.00
29121;BME280;16191;49.548;8.658;2024-01-11T10:21:43;101761.91;;;-0.32;100.00
29121;BME280;16191;49.548;8.658;2024-01-11T10:24:17;101758.56;;;0.04;100.00
29121;BME280;16191;49.548;8.658;2024-01-11T10:26:44;101753.38;;;0.02;100.00
29121;BME280;16191;49.548;8.658;2024-01-11T10:29:10;101740.19;;;0.20;100.00
29121;BME280;16191;49.548;8.658;2024-01-11T10:31:40;101744.53;;;0.24;100.00
29121;BME280;16191;49.548;8.658;2024-01-11T10:34:07;101756.69;;;-0.04;100.00
29121;BME280;16191;49.548;8.658;2024-01-11T10:36:35;101755.28;;;-0.24;100.00
29121;BME280;16191;49.548;8.658;2024-01-11T10:39:03;101762.91;;;0.06;100.00
29121;BME280;16191;49.548;8.658;2024-01-11T10:41:39;101770.22;;;0.24;100.00
29121;BME280;16191;49.548;8.658;2024-01-11T10:44:21;101772.06;;;0.29;100.00
29121;BME280;16191;49.548;8.658;2024-01-11T10:46:50;101781.13;;;0.50;100.00
29121;BME280;16191;49.548;8.658;2024-01-11T10:49:19;101779.81;;;0.31;100.00
29121;BME280;16191;49.548;8.658;2024-01-11T10:51:53;101782.38;;;0.65;100.00
29121;BME280;16191;49.548;8.658;2024-01-11T10:54:23;101778.53;;;0.83;100.00
29121;BME280;16191;49.548;8.658;2024-01-11T10:56:50;101761.25;;;1.16;100.00
29121;BME280;16191;49.548;8.658;2024-01-11T10:59:20;101760.31;;;1.13;100.00
29121;BME280;16191;49.548;8.658;2024-01-11T11:01:55;101750.69;;;0.65;100.00
29121;BME280;16191;49.548;8.658;2024-01-11T11:04:25;101756.00;;;0.73;100.00
29121;BME280;16191;49.548;8.658;2024-01-11T11:06:55;101748.69;;;0.91;100.00
29121;BME280;16191;49.548;8.658;2024-01-11T11:09:24;101749.13;;;1.50;100.00
29121;BME280;16191;49.548;8.658;2024-01-11T11:11:58;101746.97;;;0.90;100.00
29121;BME280;16191;49.548;8.658;2024-01-11T11:14:27;101752.53;;;1.49;100.00
29121;BME280;16191;49.548;8.658;2024-01-11T11:16:54;101750.50;;;1.34;100.00
29121;BME280;16191;49.548;8.658;2024-01-11T11:19:21;101743.56;;;1.30;100.00
29121;BME280;16191;49.548;8.658;2024-01-11T11:21:48;101744.34;;;1.68;100.00
29121;BME280;16191;49.548;8.658;2024-01-11T11:24:16;101729.34;;;1.47;100.00
29121;BME280;16191;49.548;8.658;2024-01-11T11:26:43;101717.97;;;1.81;100.00
29121;BME280;16191;49.548;8.658;2024-01-11T11:29:10;101712.16;;;1.90;100.00
29121;BME280;16191;49.548;8.658;2024-01-11T11:31:38;101710.66;;;2.04;100.00
29121;BME280;16191;49.548;8.658;2024-01-11T11:34:11;101709.91;;;2.10;100.00
29121;BME280;16191;49.548;8.658;2024-01-11T11:36:40;101727.16;;;2.14;100.00
29121;BME280;16191;49.548;8.658;2024-01-11T11:39:10;101719.25;;;2.04;100.00
29121;BME280;16191;49.548;8.658;2024-01-11T11:41:41;101723.66;;;1.63;100.00
29121;BME280;16191;49.548;8.658;2024-01-11T11:44:12;101713.03;;;1.92;100.00
29121;BME280;16191;49.548;8.658;2024-01-11T11:46:39;101711.19;;;1.85;100.00
29121;BME280;16191;49.548;8.658;2024-01-11T11:49:06;101707.72;;;2.32;100.00
29121;BME280;16191;49.548;8.658;2024-01-11T11:51:34;101703.22;;;2.21;100.00
29121;BME280;16191;49.548;8.658;2024-01-11T11:54:01;101699.53;;;2.61;100.00
29121;BME280;16191;49.548;8.658;2024-01-11T11:56:29;101701.97;;;2.49;100.00
29121;BME280;16191;49.548;8.658;2024-01-11T11:58:58;101701.63;;;2.85;100.00
29121;BME280;16191;49.548;8.658;2024-01-11T12:01:25;101698.34;;;2.96;100.00
29121;BME280;16191;49.548;8.658;2024-01-11T12:03:52;101704.34;;;2.94;100.00
29121;BME280;16191;49.548;8.658;2024-01-11T12:06:20;101696.31;;;2.72;100.00
29121;BME280;16191;49.548;8.658;2024-01-11T12:08:52;101697.31;;;2.84;98.27
29121;BME280;16191;49.548;8.658;2024-01-11T12:11:21;101691.63;;;2.47;100.00
29121;BME280;16191;49.548;8.658;2024-01-11T12:13:49;101690.38;;;2.78;100.00
29121;BME280;16191;49.548;8.658;2024-01-11T12:16:16;101693.75;;;2.74;100.00
29121;BME280;16191;49.548;8.658;2024-01-11T12:18:43;101685.66;;;3.13;98.42
29121;BME280;16191;49.548;8.658;2024-01-11T12:21:10;101687.72;;;2.73;94.36
29121;BME280;16191;49.548;8.658;2024-01-11T12:23:38;101685.50;;;2.99;97.24
29121;BME280;16191;49.548;8.658;2024-01-11T12:26:07;101688.03;;;2.96;92.91
29121;BME280;16191;49.548;8.658;2024-01-11T12:28:40;101682.34;;;2.58;98.16
29121;BME280;16191;49.548;8.658;2024-01-11T12:31:09;101686.28;;;2.94;94.20
29121;BME280;16191;49.548;8.658;2024-01-11T12:33:35;101684.47;;;2.87;90.88
29121;BME280;16191;49.548;8.658;2024-01-11T12:36:06;101685.72;;;3.16;90.97
29121;BME280;16191;49.548;8.658;2024-01-11T12:38:34;101673.78;;;3.24;89.67
29121;BME280;16191;49.548;8.658;2024-01-11T12:41:01;101671.81;;;3.06;87.22
29121;BME280;16191;49.548;8.658;2024-01-11T12:43:28;101666.09;;;3.30;87.62
29121;BME280;16191;49.548;8.658;2024-01-11T12:45:55;101670.34;;;3.27;85.20